Aérodrome :
LOGIN :

S'inscrire | Disclaimer

   EN    FR    IT 

 










Légende :    VFR   VFR Marginal   IFR   IFR Intensif   IFR Très Intensif
Visi : 
Plafond : 
>= 8 km
>= 3000ft
5 à 8 km
1000 à 3000 ft
1500m à 5 km
500 à 1000 ft
800 à 1500m
200 à 500 ft
< 800m
< 200 ft
Symboles :   Orages  Brouillard  Fortes neiges  Fortes précipitations  Vent > 20 kt
SIGMETs :   Divers  Orages  Givrage  Turbulence  Onde Orograph.  Cendres Volcan.







- Altitude de l'aérodrome : 51 ft
- Code IATA : GWT


EDXW - Westerland-Sylt Island

DERNIER METAR :
  • 170950Z 30023KT 9999 SCT033TCU 13/09 Q1012

METARs EXPIRÉS :
  • 170920Z 30026KT 6000 -SHRA FEW018 SCT030TCU 11/08 Q1013
  • 170820Z 30025G36KT 9999 FEW023 SCT045TCU 13/06 Q1012
  • 170750Z 30024KT 9999 FEW043 13/07 Q1012
  • 170720Z 31025G36KT 9999 -RA FEW027 12/07 Q1012
  • 170650Z 30025G37KT 9999 -RA SCT033 11/08 Q1012

TAF TAF EDXW
Valide du 17 à 09h jusqu'au 17 à 18h UTC


170800Z 1709/1718 30025G35KT 9999 SCT020
TEMPO 1709/1718 30030G45KT SHRA SCT015CB
Pas de NOTAMs connus pour ce terrain.



MET'MAP, la Météo Aéronautique d'un coup d'oeil ! - Copyright ORBIFLY Décembre 2007 - Disclaimer

ORBIFLY MET'MAP TEAM :

Programmation & Développement : Alexandra Zaïnal
Conception & Développement : Baudouin d'Aumeries
Co-Programmation & Développement : Marc-Olivier Méhu
Soutien technique & logistique : Manuel Goepfert

Contact : metmap@orbifly.com




SOURCES & CREDITS :

   NOAA